Time,TemperatureF,DewpointF,PressureIn,WindDirection,WindDirectionDegrees,WindSpeedMPH,WindSpeedGustMPH,Humidity,HourlyPrecipIn,Conditions,Clouds,dailyrainin,SoftwareType,DateUTC
2013-08-20 06:35:00,64.8,62.7,30.13,ENE,63,1.0,2.0,93,0.00,,,0.00,Wunderground v.1.15,2013-08-20 10:35:00,
2013-08-20 06:40:00,65.0,62.9,30.13,ENE,61,2.0,2.0,93,0.00,,,0.00,Wunderground v.1.15,2013-08-20 10:40:00,
2013-08-20 06:45:00,65.1,63.0,30.13,ENE,61,2.0,2.0,93,0.00,,,0.00,Wunderground v.1.15,2013-08-20 10:45:00,
2013-08-20 06:50:00,65.1,63.0,30.13,ENE,61,2.0,2.0,93,0.00,,,0.00,Wunderground v.1.15,2013-08-20 10:50:00,
2013-08-20 06:55:00,65.1,63.0,30.14,ENE,61,1.0,1.0,93,0.00,,,0.00,Wunderground v.1.15,2013-08-20 10:55:00,
2013-08-20 07:00:00,65.1,63.0,30.14,ENE,61,1.0,1.0,93,0.00,,,0.00,Wunderground v.1.15,2013-08-20 11:00:00,
2013-08-20 07:10:00,65.1,63.0,30.14,ENE,63,0.0,0.0,93,0.00,,,0.00,Wunderground v.1.15,2013-08-20 11:10:00,
2013-08-20 07:15:00,65.1,63.0,30.14,ENE,62,0.0,0.0,93,0.00,,,0.00,Wunderground v.1.15,2013-08-20 11:15:00,
2013-08-20 07:20:00,65.1,63.0,30.15,ENE,63,0.0,1.0,93,0.00,,,0.00,Wunderground v.1.15,2013-08-20 11:20:00,
2013-08-20 07:25:00,64.9,62.8,30.15,ENE,64,1.0,2.0,93,0.00,,,0.00,Wunderground v.1.15,2013-08-20 11:25:00,
2013-08-20 07:35:00,65.1,63.0,30.15,ENE,63,1.0,6.0,93,0.00,,,0.00,Wunderground v.1.15,2013-08-20 11:35:00,
2013-08-20 07:40:00,65.4,63.3,30.15,ENE,64,0.0,6.0,93,0.00,,,0.00,Wunderground v.1.15,2013-08-20 11:40:00,
2013-08-20 07:45:00,65.6,63.2,30.15,ENE,63,0.0,6.0,92,0.00,,,0.00,Wunderground v.1.15,2013-08-20 11:45:00,
2013-08-20 07:50:00,65.7,63.3,30.15,ENE,63,0.0,6.0,92,0.00,,,0.00,Wunderground v.1.15,2013-08-20 11:50:00,
2013-08-20 07:55:00,65.8,63.4,30.15,ENE,63,0.0,6.0,92,0.00,,,0.00,Wunderground v.1.15,2013-08-20 11:55:00,
2013-08-20 08:05:00,66.3,63.6,30.16,ENE,63,1.0,6.0,91,0.00,,,0.00,Wunderground v.1.15,2013-08-20 12:05:00,
2013-08-20 08:10:00,66.5,63.8,30.16,ENE,63,1.0,6.0,91,0.00,,,0.00,Wunderground v.1.15,2013-08-20 12:10:00,
2013-08-20 08:20:00,67.2,64.2,30.16,ENE,68,1.0,6.0,90,0.00,,,0.00,Wunderground v.1.15,2013-08-20 12:20:00,
2013-08-20 08:25:00,67.7,64.7,30.16,ENE,65,1.0,6.0,90,0.00,,,0.00,Wunderground v.1.15,2013-08-20 12:25:00,
2013-08-20 08:30:00,68.2,64.8,30.16,NNE,12,1.0,6.0,89,0.00,,,0.00,Wunderground v.1.15,2013-08-20 12:30:00,
2013-08-20 08:40:00,68.6,64.9,30.16,NW,326,2.0,2.0,88,0.00,,,0.00,Wunderground v.1.15,2013-08-20 12:40:00,
2013-08-20 08:45:00,68.8,65.1,30.17,NW,319,2.0,6.0,88,0.00,,,0.00,Wunderground v.1.15,2013-08-20 12:45:00,
2013-08-20 08:50:00,69.2,65.5,30.17,NW,321,1.0,6.0,88,0.00,,,0.00,Wunderground v.1.15,2013-08-20 12:50:00,
2013-08-20 08:55:00,69.5,65.8,30.17,NNW,327,1.0,6.0,88,0.00,,,0.00,Wunderground v.1.15,2013-08-20 12:55:00,
2013-08-20 09:00:00,69.6,65.9,30.17,NW,317,2.0,6.0,88,0.00,,,0.00,Wunderground v.1.15,2013-08-20 13:00:00,
2013-08-20 09:05:00,69.7,66.0,30.17,NW,319,2.0,6.0,88,0.00,,,0.00,Wunderground v.1.15,2013-08-20 13:05:00,
2013-08-20 09:30:00,73.2,67.0,30.17,NE,36,1.0,6.0,81,0.00,,,0.00,Wunderground v.1.15,2013-08-20 13:30:00,
2013-08-20 09:35:00,73.0,67.2,30.17,NNE,32,2.0,6.0,82,0.00,,,0.00,Wunderground v.1.15,2013-08-20 13:35:00,
2013-08-20 09:40:00,73.1,67.3,30.18,NNE,30,2.0,6.0,82,0.00,,,0.00,Wunderground v.1.15,2013-08-20 13:40:00,
2013-08-20 09:45:00,73.1,67.6,30.18,NNW,343,2.0,6.0,83,0.00,,,0.00,Wunderground v.1.15,2013-08-20 13:45:00,
2013-08-20 09:50:00,73.5,68.0,30.18,NNW,343,2.0,6.0,83,0.00,,,0.00,Wunderground v.1.15,2013-08-20 13:50:00,
2013-08-20 09:55:00,73.7,67.9,30.18,West,274,2.0,6.0,82,0.00,,,0.00,Wunderground v.1.15,2013-08-20 13:55:00,
2013-08-20 10:00:00,73.9,67.7,30.18,WNW,285,3.0,4.0,81,0.00,,,0.00,Wunderground v.1.15,2013-08-20 14:00:00,
2013-08-20 10:10:00,74.3,67.7,30.18,NNW,344,3.0,3.0,80,0.00,,,0.00,Wunderground v.1.15,2013-08-20 14:10:00,
2013-08-20 10:15:00,74.8,68.6,30.18,NW,325,3.0,3.0,81,0.00,,,0.00,Wunderground v.1.15,2013-08-20 14:15:00,
2013-08-20 10:20:00,75.3,68.0,30.18,West,280,3.0,3.0,78,0.00,,,0.00,Wunderground v.1.15,2013-08-20 14:20:00,
2013-08-20 10:25:00,75.3,68.0,30.18,West,269,3.0,3.0,78,0.00,,,0.00,Wunderground v.1.15,2013-08-20 14:25:00,
2013-08-20 10:30:00,75.4,68.4,30.18,West,262,3.0,3.0,79,0.00,,,0.00,Wunderground v.1.15,2013-08-20 14:30:00,
2013-08-20 10:40:00,75.9,68.2,30.18,WNW,294,4.0,4.0,77,0.00,,,0.00,Wunderground v.1.15,2013-08-20 14:40:00,
2013-08-20 10:45:00,76.1,68.7,30.18,WNW,295,3.0,4.0,78,0.00,,,0.00,Wunderground v.1.15,2013-08-20 14:45:00,
2013-08-20 10:55:00,76.5,67.2,30.18,East,85,5.0,5.0,73,0.00,,,0.00,Wunderground v.1.15,2013-08-20 14:55:00,
2013-08-20 11:00:00,76.9,67.6,30.18,NW,308,5.0,5.0,73,0.00,,,0.00,Wunderground v.1.15,2013-08-20 15:00:00,
2013-08-20 11:05:00,77.2,67.9,30.18,NW,304,4.0,5.0,73,0.00,,,0.00,Wunderground v.1.15,2013-08-20 15:05:00,
2013-08-20 11:10:00,77.1,67.4,30.18,West,267,4.0,4.0,72,0.00,,,0.00,Wunderground v.1.15,2013-08-20 15:10:00,
2013-08-20 11:20:00,77.8,67.6,30.18,NW,304,4.0,6.0,71,0.00,,,0.00,Wunderground v.1.15,2013-08-20 15:20:00,
2013-08-20 11:25:00,78.1,67.9,30.18,NE,44,5.0,6.0,71,0.00,,,0.00,Wunderground v.1.15,2013-08-20 15:25:00,
2013-08-20 11:30:00,78.3,67.3,30.18,NW,321,4.0,4.0,69,0.00,,,0.00,Wunderground v.1.15,2013-08-20 15:30:00,
2013-08-20 11:40:00,79.1,67.2,30.18,NW,316,3.0,6.0,67,0.00,,,0.00,Wunderground v.1.15,2013-08-20 15:40:00,
2013-08-20 11:50:00,79.8,68.3,30.18,WSW,258,3.0,4.0,68,0.00,,,0.00,Wunderground v.1.15,2013-08-20 15:50:00,
2013-08-20 11:55:00,79.2,67.7,30.17,NW,317,4.0,5.0,68,0.00,,,0.00,Wunderground v.1.15,2013-08-20 15:55:00,
2013-08-20 12:00:00,79.2,66.9,30.17,WNW,293,4.0,4.0,66,0.00,,,0.00,Wunderground v.1.15,2013-08-20 16:00:00,
2013-08-20 12:10:00,79.7,66.0,30.17,WSW,243,2.0,3.0,63,0.00,,,0.00,Wunderground v.1.15,2013-08-20 16:10:00,
2013-08-20 12:15:00,79.9,66.2,30.17,NW,304,3.0,5.0,63,0.00,,,0.00,Wunderground v.1.15,2013-08-20 16:15:00,
2013-08-20 12:25:00,80.0,65.8,30.17,West,277,5.0,5.0,62,0.00,,,0.00,Wunderground v.1.15,2013-08-20 16:25:00,
2013-08-20 12:35:00,79.8,67.4,30.17,WNW,283,6.0,6.0,66,0.00,,,0.00,Wunderground v.1.15,2013-08-20 16:35:00,
2013-08-20 12:40:00,80.1,66.4,30.17,West,270,5.0,5.0,63,0.00,,,0.00,Wunderground v.1.15,2013-08-20 16:40:00,
2013-08-20 12:45:00,80.1,66.4,30.17,NW,304,5.0,7.0,63,0.00,,,0.00,Wunderground v.1.15,2013-08-20 16:45:00,
2013-08-20 12:50:00,79.7,66.4,30.16,WNW,287,5.0,5.0,64,0.00,,,0.00,Wunderground v.1.15,2013-08-20 16:50:00,
2013-08-20 13:00:00,80.0,66.7,30.16,WNW,282,6.0,6.0,64,0.00,,,0.00,Wunderground v.1.15,2013-08-20 17:00:00,
2013-08-20 13:05:00,80.1,66.4,30.16,NW,314,5.0,7.0,63,0.00,,,0.00,Wunderground v.1.15,2013-08-20 17:05:00,
2013-08-20 13:10:00,79.8,66.1,30.16,WNW,283,5.0,10.0,63,0.00,,,0.00,Wunderground v.1.15,2013-08-20 17:10:00,
2013-08-20 13:20:00,80.7,66.5,30.16,NE,44,6.0,6.0,62,0.00,,,0.00,Wunderground v.1.15,2013-08-20 17:20:00,
2013-08-20 13:25:00,81.8,66.6,30.16,NW,314,5.0,10.0,60,0.00,,,0.00,Wunderground v.1.15,2013-08-20 17:25:00,
2013-08-20 13:30:00,81.3,66.1,30.16,WNW,295,5.0,10.0,60,0.00,,,0.00,Wunderground v.1.15,2013-08-20 17:30:00,
2013-08-20 13:35:00,81.0,64.8,30.16,WNW,298,5.0,10.0,58,0.00,,,0.00,Wunderground v.1.15,2013-08-20 17:35:00,
2013-08-20 13:45:00,81.2,67.4,30.16,WNW,302,3.0,6.0,63,0.00,,,0.00,Wunderground v.1.15,2013-08-20 17:45:00,
2013-08-20 13:50:00,81.6,66.8,30.15,WNW,288,4.0,10.0,61,0.00,,,0.00,Wunderground v.1.15,2013-08-20 17:50:00,
2013-08-20 14:00:00,80.5,65.8,30.15,WNW,287,5.0,5.0,61,0.00,,,0.00,Wunderground v.1.15,2013-08-20 18:00:00,
2013-08-20 14:10:00,81.1,65.4,30.15,West,270,5.0,5.0,59,0.00,,,0.00,Wunderground v.1.15,2013-08-20 18:10:00,
2013-08-20 14:20:00,81.7,67.4,30.14,NNW,330,4.0,5.0,62,0.00,,,0.00,Wunderground v.1.15,2013-08-20 18:20:00,
2013-08-20 14:25:00,82.3,66.5,30.14,West,269,4.0,5.0,59,0.00,,,0.00,Wunderground v.1.15,2013-08-20 18:25:00,
2013-08-20 14:35:00,81.9,65.7,30.14,West,278,5.0,11.0,58,0.00,,,0.00,Wunderground v.1.15,2013-08-20 18:35:00,
2013-08-20 14:40:00,81.9,64.7,30.14,WNW,297,5.0,5.0,56,0.00,,,0.00,Wunderground v.1.15,2013-08-20 18:40:00,
2013-08-20 14:45:00,81.9,65.7,30.14,WSW,252,5.0,11.0,58,0.00,,,0.00,Wunderground v.1.15,2013-08-20 18:45:00,
2013-08-20 14:50:00,81.6,64.4,30.14,North,349,5.0,5.0,56,0.00,,,0.00,Wunderground v.1.15,2013-08-20 18:50:00,
2013-08-20 15:00:00,82.5,65.7,30.14,WNW,302,5.0,11.0,57,0.00,,,0.00,Wunderground v.1.15,2013-08-20 19:00:00,
2013-08-20 15:05:00,82.2,66.4,30.14,NW,317,6.0,11.0,59,0.00,,,0.00,Wunderground v.1.15,2013-08-20 19:05:00,
2013-08-20 15:15:00,81.4,67.1,30.13,WSW,257,4.0,11.0,62,0.00,,,0.00,Wunderground v.1.15,2013-08-20 19:15:00,
2013-08-20 15:25:00,81.0,65.3,30.13,WSW,248,7.0,11.0,59,0.00,,,0.00,Wunderground v.1.15,2013-08-20 19:25:00,
2013-08-20 15:30:00,81.1,66.4,30.13,SSE,168,5.0,5.0,61,0.00,,,0.00,Wunderground v.1.15,2013-08-20 19:30:00,
2013-08-20 15:35:00,81.9,66.6,30.13,NW,309,3.0,11.0,60,0.00,,,0.00,Wunderground v.1.15,2013-08-20 19:35:00,
2013-08-20 15:40:00,82.5,65.7,30.13,WNW,284,3.0,11.0,57,0.00,,,0.00,Wunderground v.1.15,2013-08-20 19:40:00,
2013-08-20 15:45:00,82.2,66.9,30.12,WSW,245,4.0,11.0,60,0.00,,,0.00,Wunderground v.1.15,2013-08-20 19:45:00,
2013-08-20 15:50:00,82.4,66.6,30.12,NE,51,4.0,4.0,59,0.00,,,0.00,Wunderground v.1.15,2013-08-20 19:50:00,
2013-08-20 16:00:00,81.5,66.8,30.12,West,274,6.0,6.0,61,0.00,,,0.00,Wunderground v.1.15,2013-08-20 20:00:00,
2013-08-20 16:10:00,82.5,65.2,30.12,West,262,5.0,5.0,56,0.00,,,0.00,Wunderground v.1.15,2013-08-20 20:10:00,
2013-08-20 16:15:00,82.4,65.6,30.11,WSW,246,5.0,7.0,57,0.00,,,0.00,Wunderground v.1.15,2013-08-20 20:15:00,
2013-08-20 16:20:00,81.7,66.0,30.11,WSW,250,5.0,5.0,59,0.00,,,0.00,Wunderground v.1.15,2013-08-20 20:20:00,
2013-08-20 16:25:00,81.7,65.0,30.11,West,263,4.0,5.0,57,0.00,,,0.00,Wunderground v.1.15,2013-08-20 20:25:00,
2013-08-20 16:35:00,82.2,64.9,30.11,West,271,3.0,13.0,56,0.00,,,0.00,Wunderground v.1.15,2013-08-20 20:35:00,
2013-08-20 16:40:00,82.7,65.9,30.11,WSW,249,3.0,13.0,57,0.00,,,0.00,Wunderground v.1.15,2013-08-20 20:40:00,
2013-08-20 16:45:00,82.7,65.4,30.11,West,262,4.0,13.0,56,0.00,,,0.00,Wunderground v.1.15,2013-08-20 20:45:00,
2013-08-20 16:55:00,82.4,64.6,30.11,WNW,297,6.0,13.0,55,0.00,,,0.00,Wunderground v.1.15,2013-08-20 20:55:00,
2013-08-20 17:05:00,81.9,63.6,30.11,WNW,288,5.0,13.0,54,0.00,,,0.00,Wunderground v.1.15,2013-08-20 21:05:00,
2013-08-20 17:10:00,81.9,65.2,30.11,WNW,294,5.0,13.0,57,0.00,,,0.00,Wunderground v.1.15,2013-08-20 21:10:00,
2013-08-20 17:20:00,82.1,65.4,30.11,NW,310,4.0,13.0,57,0.00,,,0.00,Wunderground v.1.15,2013-08-20 21:20:00,
2013-08-20 17:25:00,82.1,65.4,30.11,WSW,248,5.0,13.0,57,0.00,,,0.00,Wunderground v.1.15,2013-08-20 21:25:00,
2013-08-20 17:35:00,82.0,66.7,30.11,WNW,291,4.0,13.0,60,0.00,,,0.00,Wunderground v.1.15,2013-08-20 21:35:00,
2013-08-20 17:40:00,81.8,65.6,30.11,West,276,5.0,5.0,58,0.00,,,0.00,Wunderground v.1.15,2013-08-20 21:40:00,
2013-08-20 17:45:00,81.6,65.4,30.11,WSW,253,5.0,13.0,58,0.00,,,0.00,Wunderground v.1.15,2013-08-20 21:45:00,
2013-08-20 17:55:00,82.1,67.3,30.10,West,274,3.0,13.0,61,0.00,,,0.00,Wunderground v.1.15,2013-08-20 21:55:00,
2013-08-20 18:00:00,82.2,66.0,30.10,East,87,3.0,3.0,58,0.00,,,0.00,Wunderground v.1.15,2013-08-20 22:00:00,
2013-08-20 18:10:00,82.1,65.9,30.10,WNW,298,4.0,4.0,58,0.00,,,0.00,Wunderground v.1.15,2013-08-20 22:10:00,
2013-08-20 18:20:00,82.2,66.9,30.10,West,269,2.0,5.0,60,0.00,,,0.00,Wunderground v.1.15,2013-08-20 22:20:00,
2013-08-20 18:25:00,82.0,65.8,30.10,WNW,298,3.0,5.0,58,0.00,,,0.00,Wunderground v.1.15,2013-08-20 22:25:00,
2013-08-20 18:35:00,81.0,66.8,30.10,NNW,340,3.0,8.0,62,0.00,,,0.00,Wunderground v.1.15,2013-08-20 22:35:00,
2013-08-20 18:40:00,80.8,67.0,30.10,West,271,2.0,8.0,63,0.00,,,0.00,Wunderground v.1.15,2013-08-20 22:40:00,
2013-08-20 18:45:00,80.8,67.0,30.10,West,271,2.0,8.0,63,0.00,,,0.00,Wunderground v.1.15,2013-08-20 22:45:00,
2013-08-20 18:50:00,80.8,67.5,30.10,West,271,2.0,8.0,64,0.00,,,0.00,Wunderground v.1.15,2013-08-20 22:50:00,
2013-08-20 19:00:00,80.6,66.4,30.10,West,269,3.0,3.0,62,0.00,,,0.00,Wunderground v.1.15,2013-08-20 23:00:00,
2013-08-20 19:05:00,80.6,66.8,30.10,West,269,3.0,8.0,63,0.00,,,0.00,Wunderground v.1.15,2013-08-20 23:05:00,
2013-08-20 19:10:00,80.5,67.2,30.10,West,271,3.0,8.0,64,0.00,,,0.00,Wunderground v.1.15,2013-08-20 23:10:00,
2013-08-20 19:20:00,80.2,67.4,30.10,West,259,4.0,8.0,65,0.00,,,0.00,Wunderground v.1.15,2013-08-20 23:20:00,
2013-08-20 19:25:00,80.1,67.3,30.10,West,262,3.0,8.0,65,0.00,,,0.00,Wunderground v.1.15,2013-08-20 23:25:00,
2013-08-20 19:30:00,80.0,67.2,30.10,West,269,3.0,8.0,65,0.00,,,0.00,Wunderground v.1.15,2013-08-20 23:30:00,
2013-08-20 19:35:00,79.9,67.5,30.10,WSW,253,4.0,8.0,66,0.00,,,0.00,Wunderground v.1.15,2013-08-20 23:35:00,
2013-08-20 19:40:00,79.6,67.7,30.10,WSW,254,4.0,4.0,67,0.00,,,0.00,Wunderground v.1.15,2013-08-20 23:40:00,
2013-08-20 19:45:00,79.4,67.9,30.10,WSW,256,3.0,8.0,68,0.00,,,0.00,Wunderground v.1.15,2013-08-20 23:45:00,
2013-08-20 19:50:00,79.2,68.1,30.10,WSW,253,3.0,8.0,69,0.00,,,0.00,Wunderground v.1.15,2013-08-20 23:50:00,
2013-08-20 19:55:00,79.0,68.4,30.10,WSW,255,2.0,8.0,70,0.00,,,0.00,Wunderground v.1.15,2013-08-20 23:55:00,
2013-08-20 20:00:00,78.9,68.3,30.10,WSW,255,2.0,3.0,70,0.00,,,0.00,Wunderground v.1.15,2013-08-21 00:00:00,
2013-08-20 20:10:00,78.7,68.1,30.10,WSW,255,3.0,3.0,70,0.00,,,0.00,Wunderground v.1.15,2013-08-21 00:10:00,
2013-08-20 20:20:00,78.4,68.2,30.10,WSW,255,3.0,3.0,71,0.00,,,0.00,Wunderground v.1.15,2013-08-21 00:20:00,
2013-08-20 20:25:00,78.2,68.4,30.10,WSW,253,3.0,3.0,72,0.00,,,0.00,Wunderground v.1.15,2013-08-21 00:25:00,
2013-08-20 20:30:00,77.8,68.0,30.10,WSW,252,3.0,3.0,72,0.00,,,0.00,Wunderground v.1.15,2013-08-21 00:30:00,
2013-08-20 20:40:00,77.5,67.8,30.10,WSW,252,3.0,5.0,72,0.00,,,0.00,Wunderground v.1.15,2013-08-21 00:40:00,
2013-08-20 20:45:00,77.3,67.6,30.10,WSW,252,3.0,5.0,72,0.00,,,0.00,Wunderground v.1.15,2013-08-21 00:45:00,
2013-08-20 20:50:00,77.1,67.4,30.10,WSW,250,3.0,5.0,72,0.00,,,0.00,Wunderground v.1.15,2013-08-21 00:50:00,
2013-08-20 20:55:00,77.0,67.3,30.10,WSW,245,3.0,5.0,72,0.00,,,0.00,Wunderground v.1.15,2013-08-21 00:55:00,
2013-08-20 21:00:00,76.8,67.1,30.10,WSW,246,3.0,3.0,72,0.00,,,0.00,Wunderground v.1.15,2013-08-21 01:00:00,
2013-08-20 21:05:00,76.6,66.9,30.10,WSW,246,3.0,5.0,72,0.00,,,0.00,Wunderground v.1.15,2013-08-21 01:05:00,
2013-08-20 21:15:00,76.5,66.4,30.10,WSW,245,3.0,5.0,71,0.00,,,0.00,Wunderground v.1.15,2013-08-21 01:15:00,
2013-08-20 21:25:00,76.1,66.8,30.10,WSW,246,2.0,5.0,73,0.00,,,0.00,Wunderground v.1.15,2013-08-21 01:25:00,
2013-08-20 21:30:00,75.9,66.6,30.10,WSW,246,2.0,5.0,73,0.00,,,0.00,Wunderground v.1.15,2013-08-21 01:30:00,
2013-08-20 21:35:00,76.1,66.4,30.11,WSW,246,3.0,5.0,72,0.00,,,0.00,Wunderground v.1.15,2013-08-21 01:35:00,
2013-08-20 21:40:00,76.1,66.8,30.11,WSW,245,3.0,3.0,73,0.00,,,0.00,Wunderground v.1.15,2013-08-21 01:40:00,
2013-08-20 21:50:00,75.5,66.6,30.11,WSW,246,2.0,5.0,74,0.00,,,0.00,Wunderground v.1.15,2013-08-21 01:50:00,
2013-08-20 21:55:00,75.5,66.6,30.11,WSW,246,2.0,5.0,74,0.00,,,0.00,Wunderground v.1.15,2013-08-21 01:55:00,
2013-08-20 22:00:00,75.6,66.7,30.11,WSW,248,3.0,3.0,74,0.00,,,0.00,Wunderground v.1.15,2013-08-21 02:00:00,
2013-08-20 22:10:00,75.9,66.6,30.11,WSW,244,3.0,4.0,73,0.00,,,0.00,Wunderground v.1.15,2013-08-21 02:10:00,
2013-08-20 22:15:00,75.7,66.4,30.12,WSW,244,3.0,4.0,73,0.00,,,0.00,Wunderground v.1.15,2013-08-21 02:15:00,
2013-08-20 22:25:00,74.8,66.3,30.12,WSW,246,2.0,3.0,75,0.00,,,0.00,Wunderground v.1.15,2013-08-21 02:25:00,
2013-08-20 22:30:00,74.6,66.5,30.12,WSW,244,2.0,2.0,76,0.00,,,0.00,Wunderground v.1.15,2013-08-21 02:30:00,
2013-08-20 22:35:00,74.3,66.2,30.12,WSW,245,1.0,3.0,76,0.00,,,0.00,Wunderground v.1.15,2013-08-21 02:35:00,
2013-08-20 22:45:00,73.7,66.0,30.11,WSW,245,0.0,3.0,77,0.00,,,0.00,Wunderground v.1.15,2013-08-21 02:45:00,
2013-08-20 22:55:00,73.1,66.2,30.12,WSW,245,0.0,3.0,79,0.00,,,0.00,Wunderground v.1.15,2013-08-21 02:55:00,
2013-08-20 23:00:00,73.1,66.6,30.11,WSW,245,1.0,3.0,80,0.00,,,0.00,Wunderground v.1.15,2013-08-21 03:00:00,
2013-08-20 23:05:00,73.0,66.5,30.12,WSW,245,1.0,3.0,80,0.00,,,0.00,Wunderground v.1.15,2013-08-21 03:05:00,
2013-08-20 23:10:00,73.0,66.5,30.12,WSW,245,1.0,3.0,80,0.00,,,0.00,Wunderground v.1.15,2013-08-21 03:10:00,
2013-08-20 23:20:00,73.0,66.5,30.12,WSW,243,1.0,3.0,80,0.00,,,0.00,Wunderground v.1.15,2013-08-21 03:20:00,
2013-08-20 23:30:00,72.9,66.4,30.12,WSW,245,1.0,3.0,80,0.00,,,0.00,Wunderground v.1.15,2013-08-21 03:30:00,
2013-08-20 23:35:00,73.0,66.5,30.12,WSW,243,2.0,3.0,80,0.00,,,0.00,Wunderground v.1.15,2013-08-21 03:35:00,
2013-08-20 23:40:00,73.0,66.5,30.12,WSW,245,2.0,3.0,80,0.00,,,0.00,Wunderground v.1.15,2013-08-21 03:40:00,
2013-08-20 23:45:00,73.1,66.6,30.12,WSW,243,2.0,3.0,80,0.00,,,0.00,Wunderground v.1.15,2013-08-21 03:45:00,
2013-08-20 23:50:00,73.0,66.5,30.13,WSW,243,2.0,3.0,80,0.00,,,0.00,Wunderground v.1.15,2013-08-21 03:50:00,
2013-08-20 23:55:00,73.1,66.6,30.13,WSW,243,3.0,4.0,80,0.00,,,0.00,Wunderground v.1.15,2013-08-21 03:55:00,